Brownsville-South Padre I International, TX

4:25 AM CST on January 29, 2015 (GMT -0600)
Port Isabel | Change Station
CLOSE
Current Station
Airport
Location: Port Isabel,
Elevation: 16 ft
Nearby Weather Stations

Elev 16 ft 26.16 °N, 97.34 °W | Updated 32 minutes ago

Clear
Clear
59 °F
Feels Like 59 °F
N
7
Wind Variable Wind from SE

Today
High -- | Low -- °F
--% Chance of Precip.
Yesterday
High -- | Low -- °F
Precip. -- in
7:15 AM 6:10 PM
Waxing Gibbous, 73% visible
Pressure 30.12 in
Visibility 8.0 miles
Clouds Clear
Dew Point 57 °F
Humidity 93%
Rainfall 0.00 in
Snow Depth Not available.
UV 0 out of 12
Pollen 8.60 out of 12
Air Quality Not available.
Flu Activity Not available.
METAR KPIL 290953Z AUTO 14006KT 8SM CLR 15/14 A3013 RMK AO2 SLP200 T01500139

More Conditions Fewer Conditions

Pressure 30.12 in
Visibility 8.0 miles
Clouds Clear
Dew Point 57 °F
Humidity 93%
Rainfall 0.00 in
Snow Depth Not available.
UV 0 out of 12
Pollen 8.60 out of 12
Air Quality Not available.
Flu Activity Not available.
METAR KPIL 290953Z AUTO 14006KT 8SM CLR 15/14 A3013 RMK AO2 SLP200 T01500139

More Conditions Fewer Conditions

Nowcast | as of 4:04 am CST on January 29, 2015

Through 7 am...areas of fog...some locally dense...will develop and affect the Rio Grande Valley...ranchlands...and brush country. Visibility will be reduced to 1 to 3 miles...with some areas dropping below 1 mile at times. Motorists are urged to slow down and use low beam headlights when encountering areas of reduced visibility.

×

10-Day Weather Forecast

Almanac

Astronomy

Jan. 29, 2015 Rise Set
Actual Time
Civil Twilight
Nautical Twilight
Astronomical Twilight
Moon
Length of Visible Light
Length of Day
Tomorrow will be .
, % of the Moon is Illuminated

Today's Extremes

State Highs State Lows

Community

WunderPhotos

Upload Photos

1,791,389 photos uploaded!

WunderBlogs® & News

Nearby

Air Quality

  Air Quality AQ Index Pollutant
Not available.

Snow Depth

Station Depth Elevation

Earthquake Activity

City Distance Mag. Time & Date
Minimum magnitude displayed is 2.5.

Coastal Water Temperatures

Place Temperature

Nearby Weather Stations